Time;durP1;ratioP1;P1;durP2;ratioP2;P2;SDS_P1;SDS_P2;PMS_P1;PMS_P2;Temp;Humidity;BMP_temperature;BMP_pressure;BME280_temperature;BME280_humidity;BME280_pressure;Samples;Min_cycle;Max_cycle;Signal;HPM_P1;HPM_P2
2023/07/31 00:01:12;;;;;;;4.13;1.85;;;;;;;14.38;100.00;100902.31;4987546;28;20051;-72
2023/07/31 00:03:39;;;;;;;4.88;1.83;;;;;;;14.36;100.00;100907.56;4985464;28;20058;-71
2023/07/31 00:06:06;;;;;;;6.00;1.60;;;;;;;14.27;100.00;100890.59;4987142;28;20572;-71
2023/07/31 00:08:32;;;;;;;5.03;2.13;;;;;;;14.34;100.00;100894.00;4990383;28;20146;-71
2023/07/31 00:10:59;;;;;;;3.60;1.90;;;;;;;14.37;100.00;100895.13;4988596;28;20046;-72
2023/07/31 00:13:25;;;;;;;8.88;2.47;;;;;;;14.34;100.00;100896.81;4989699;28;20105;-71
2023/07/31 00:15:52;;;;;;;6.50;2.53;;;;;;;14.33;100.00;100889.66;4990161;28;20050;-69
2023/07/31 00:18:18;;;;;;;10.02;4.13;;;;;;;14.39;100.00;100887.88;4989156;28;20500;-72
2023/07/31 00:20:45;;;;;;;8.70;2.65;;;;;;;14.32;100.00;100885.25;4989472;28;20053;-72
2023/07/31 00:23:12;;;;;;;7.43;2.83;;;;;;;14.21;100.00;100886.78;4994605;28;20074;-71
2023/07/31 00:25:39;;;;;;;8.30;3.05;;;;;;;14.27;100.00;100885.00;4986219;28;20058;-70
2023/07/31 00:28:05;;;;;;;7.45;2.88;;;;;;;14.26;100.00;100884.25;4986188;28;20100;-74
2023/07/31 00:30:32;;;;;;;9.25;3.65;;;;;;;14.38;100.00;100894.69;4987077;28;20093;-70
2023/07/31 00:32:58;;;;;;;10.75;4.03;;;;;;;14.45;100.00;100886.16;4988214;28;20494;-70
2023/07/31 00:35:25;;;;;;;10.00;3.28;;;;;;;14.43;100.00;100891.41;4988526;28;20081;-74
2023/07/31 00:37:52;;;;;;;7.45;2.88;;;;;;;14.34;100.00;100896.00;4988026;28;20047;-72
2023/07/31 00:40:18;;;;;;;20.60;5.20;;;;;;;14.56;100.00;100911.81;4985929;28;20463;-70
2023/07/31 00:42:45;;;;;;;13.82;4.38;;;;;;;14.59;100.00;100908.16;4985555;28;20054;-71
2023/07/31 00:45:11;;;;;;;11.80;4.45;;;;;;;14.68;100.00;100913.09;4992149;28;20112;-71
2023/07/31 00:47:38;;;;;;;14.52;3.83;;;;;;;14.67;100.00;100908.75;4987112;28;20080;-72
2023/07/31 00:50:05;;;;;;;18.27;5.30;;;;;;;14.75;100.00;100915.72;4990915;28;20138;-73
2023/07/31 00:52:32;;;;;;;11.75;4.32;;;;;;;14.68;100.00;100955.09;4989639;28;20502;-71
2023/07/31 00:54:59;;;;;;;9.93;3.85;;;;;;;14.74;100.00;101006.50;4991259;28;20433;-71
2023/07/31 00:57:25;;;;;;;18.80;5.55;;;;;;;14.92;100.00;101023.63;4985311;28;20046;-73
2023/07/31 00:59:52;;;;;;;21.42;6.32;;;;;;;14.85;100.00;101013.41;4986162;28;20149;-72
2023/07/31 01:02:18;;;;;;;11.48;5.43;;;;;;;14.83;100.00;101006.69;4985937;28;20069;-70
2023/07/31 01:04:46;;;;;;;15.77;5.85;;;;;;;14.95;100.00;100994.75;4991204;28;20295;-71
2023/07/31 01:07:47;;;;;;;12.20;3.38;;;;;;;14.77;100.00;100978.44;4987061;28;20057;-71
2023/07/31 01:10:30;;;;;;;9.95;3.10;;;;;;;14.90;100.00;100967.31;4978409;28;20042;-76
2023/07/31 01:12:58;;;;;;;19.17;4.75;;;;;;;15.02;100.00;100949.75;4989173;28;20054;-67
2023/07/31 01:15:24;;;;;;;19.15;6.18;;;;;;;14.96;100.00;100927.13;4997775;28;20105;-76
2023/07/31 01:17:51;;;;;;;20.30;5.45;;;;;;;14.82;100.00;100932.34;4990634;28;20054;-71
2023/07/31 01:20:21;;;;;;;19.77;6.45;;;;;;;15.02;100.00;100918.97;4988547;28;20112;-70
2023/07/31 01:23:00;;;;;;;11.15;3.35;;;;;;;14.94;100.00;100904.41;4989001;28;20054;-72
2023/07/31 01:26:01;;;;;;;9.85;3.33;;;;;;;15.04;100.00;100891.31;4994547;28;20108;-72
2023/07/31 01:28:51;;;;;;;16.48;5.00;;;;;;;15.00;100.00;100890.63;4985131;28;20055;-70
2023/07/31 01:31:23;;;;;;;11.20;3.65;;;;;;;14.94;100.00;100896.00;4984559;28;20446;-71
2023/07/31 01:33:53;;;;;;;24.73;6.15;;;;;;;15.02;100.00;100902.16;4987484;28;20137;-71
2023/07/31 01:36:20;;;;;;;18.10;4.55;;;;;;;14.99;100.00;100897.47;4978656;28;20498;-72
2023/07/31 01:38:47;;;;;;;21.45;6.35;;;;;;;15.03;100.00;100881.34;4989487;28;20047;-70
2023/07/31 01:41:13;;;;;;;11.35;3.58;;;;;;;14.99;100.00;100886.28;4993543;28;20414;-70
2023/07/31 01:43:40;;;;;;;15.23;1.65;;;;;;;14.96;100.00;100875.97;4994967;28;20050;-72
2023/07/31 01:46:06;;;;;;;11.50;4.57;;;;;;;15.03;100.00;100873.72;4989106;28;20201;-73
2023/07/31 01:48:35;;;;;;;17.27;4.70;;;;;;;14.90;100.00;100872.13;4991159;28;20050;-73
2023/07/31 01:51:02;;;;;;;19.23;5.00;;;;;;;15.11;100.00;100860.31;4990558;28;20049;-72
2023/07/31 01:53:32;;;;;;;11.77;3.92;;;;;;;15.04;100.00;100868.91;4991292;28;20058;-73
2023/07/31 01:55:59;;;;;;;9.02;3.03;;;;;;;15.14;100.00;100855.81;4988622;28;20061;-69
2023/07/31 01:58:26;;;;;;;17.60;3.70;;;;;;;15.05;100.00;100855.72;4990290;28;20096;-73
2023/07/31 02:00:52;;;;;;;9.05;3.17;;;;;;;15.03;100.00;100854.13;4991247;28;20426;-72
2023/07/31 02:03:19;;;;;;;20.75;2.90;;;;;;;15.06;100.00;100849.66;4990663;28;20050;-73
2023/07/31 02:05:47;;;;;;;13.23;4.53;;;;;;;15.01;100.00;100847.41;4990814;28;20596;-76
2023/07/31 02:08:14;;;;;;;9.18;2.35;;;;;;;15.08;100.00;100838.78;4990160;28;20076;-71
2023/07/31 02:10:40;;;;;;;11.77;3.97;;;;;;;14.93;100.00;100846.03;4991404;28;20065;-70
2023/07/31 02:13:07;;;;;;;12.15;3.28;;;;;;;15.03;100.00;100837.31;4990196;28;20109;-70
2023/07/31 02:15:34;;;;;;;9.50;3.13;;;;;;;14.98;100.00;100831.50;4989121;28;20093;-70
2023/07/31 02:18:00;;;;;;;21.02;6.50;;;;;;;15.08;100.00;100826.81;4990789;28;20082;-71
2023/07/31 02:20:27;;;;;;;20.63;5.47;;;;;;;15.10;100.00;100824.34;4988156;28;20042;-72
2023/07/31 02:22:54;;;;;;;20.00;4.93;;;;;;;15.07;100.00;100825.22;4977335;28;20098;-68
2023/07/31 02:25:20;;;;;;;10.45;2.90;;;;;;;14.82;100.00;100809.19;4988263;28;20659;-74
2023/07/31 02:27:47;;;;;;;15.93;4.60;;;;;;;15.04;100.00;100821.31;4990762;28;20129;-72
2023/07/31 02:30:13;;;;;;;11.75;3.08;;;;;;;14.97;100.00;100807.53;4988769;28;20410;-69
2023/07/31 02:32:40;;;;;;;15.15;3.10;;;;;;;14.99;100.00;100813.47;4990369;28;20054;-72
2023/07/31 02:35:07;;;;;;;18.98;5.63;;;;;;;14.98;100.00;100799.94;4987518;28;20137;-75
2023/07/31 02:37:34;;;;;;;24.17;5.07;;;;;;;15.00;100.00;100793.41;4992996;28;20054;-72
2023/07/31 02:40:01;;;;;;;14.35;3.22;;;;;;;14.92;100.00;100797.66;4987743;28;20054;-74
2023/07/31 02:42:27;;;;;;;15.27;3.63;;;;;;;14.94;100.00;100791.63;4989117;28;20404;-71
2023/07/31 02:44:55;;;;;;;5.30;2.40;;;;;;;14.93;100.00;100793.63;4987902;28;20055;-70
2023/07/31 02:47:22;;;;;;;24.60;5.68;;;;;;;15.05;100.00;100803.28;4986007;28;20121;-70
2023/07/31 02:49:49;;;;;;;12.63;4.10;;;;;;;14.99;100.00;100794.66;4986087;28;20050;-71
2023/07/31 02:52:15;;;;;;;13.30;3.40;;;;;;;15.02;100.00;100792.19;4987190;28;20050;-74
2023/07/31 02:54:42;;;;;;;23.75;4.30;;;;;;;14.94;100.00;100792.41;4988956;28;20134;-73
2023/07/31 02:57:09;;;;;;;11.70;2.88;;;;;;;15.09;100.00;100787.16;4988825;28;20046;-74
2023/07/31 02:59:35;;;;;;;12.32;3.92;;;;;;;15.08;100.00;100773.63;4990006;28;20115;-73
2023/07/31 03:02:02;;;;;;;12.02;3.97;;;;;;;15.06;100.00;100767.66;4989611;28;20568;-71
2023/07/31 03:04:29;;;;;;;18.48;4.70;;;;;;;15.06;100.00;100759.28;4989021;28;20053;-71
2023/07/31 03:06:55;;;;;;;15.88;5.65;;;;;;;14.92;100.00;100749.28;4989812;28;20061;-75
2023/07/31 03:09:22;;;;;;;14.48;5.05;;;;;;;15.05;100.00;100750.06;4992719;28;20139;-70
2023/07/31 03:11:48;;;;;;;10.15;3.33;;;;;;;15.02;100.00;100746.16;4989772;28;20097;-69
2023/07/31 03:14:15;;;;;;;6.65;2.33;;;;;;;15.00;100.00;100745.06;4990801;28;20080;-73
2023/07/31 03:16:43;;;;;;;11.40;3.63;;;;;;;14.96;100.00;100747.94;4987164;28;20068;-73
2023/07/31 03:19:10;;;;;;;17.30;4.50;;;;;;;15.02;100.00;100741.81;4982857;28;20054;-73
2023/07/31 03:21:36;;;;;;;16.27;2.65;;;;;;;15.07;100.00;100736.44;4986953;28;20553;-72
2023/07/31 03:24:03;;;;;;;12.57;3.55;;;;;;;15.00;100.00;100729.03;4987915;28;20051;-73
2023/07/31 03:26:32;;;;;;;15.57;4.68;;;;;;;14.97;100.00;100726.34;4987669;28;20054;-73
2023/07/31 03:28:58;;;;;;;7.10;2.50;;;;;;;15.01;100.00;100738.22;4986968;28;20502;-71
2023/07/31 03:31:25;;;;;;;18.08;5.13;;;;;;;15.13;100.00;100729.03;4987521;28;20431;-74
2023/07/31 03:33:51;;;;;;;10.07;2.88;;;;;;;15.06;100.00;100734.06;4988568;28;20133;-70
2023/07/31 03:36:18;;;;;;;18.15;4.18;;;;;;;15.13;100.00;100736.66;4987990;28;20511;-72
2023/07/31 03:38:46;;;;;;;17.88;5.20;;;;;;;15.15;100.00;100734.97;4972880;28;20257;-73
2023/07/31 03:41:12;;;;;;;11.30;3.25;;;;;;;14.98;100.00;100729.94;4988951;28;20043;-71
2023/07/31 03:43:39;;;;;;;12.77;3.95;;;;;;;15.05;100.00;100727.69;4988956;28;20469;-70
2023/07/31 03:46:05;;;;;;;14.20;4.55;;;;;;;15.06;100.00;100734.06;4987850;28;20092;-72
2023/07/31 03:48:32;;;;;;;11.13;3.50;;;;;;;15.24;100.00;100737.09;4987753;28;20100;-71
2023/07/31 03:50:58;;;;;;;8.95;3.25;;;;;;;15.23;100.00;100733.53;4987681;28;20133;-69
2023/07/31 03:53:25;;;;;;;18.35;4.10;;;;;;;15.16;100.00;100722.56;4986006;28;20506;-73
2023/07/31 03:55:51;;;;;;;13.55;3.53;;;;;;;15.31;100.00;100722.84;4987901;28;20077;-69
2023/07/31 03:58:18;;;;;;;3.50;1.25;;;;;;;15.21;100.00;100721.97;4987037;28;20062;-67
2023/07/31 04:00:45;;;;;;;14.75;3.83;;;;;;;15.23;100.00;100722.31;4987966;28;20073;-75
2023/07/31 04:03:12;;;;;;;18.75;5.40;;;;;;;15.34;100.00;100717.16;4980063;28;20047;-70
2023/07/31 04:05:39;;;;;;;17.58;5.10;;;;;;;15.35;100.00;100726.34;4987745;28;20077;-69
2023/07/31 04:08:06;;;;;;;16.45;4.75;;;;;;;15.34;100.00;100719.16;4994158;28;20058;-72
2023/07/31 04:10:33;;;;;;;12.15;2.88;;;;;;;15.25;100.00;100727.47;4987986;28;20042;-72
2023/07/31 04:13:00;;;;;;;6.03;1.60;;;;;;;15.26;100.00;100715.03;4988448;28;20589;-71
2023/07/31 04:15:27;;;;;;;5.00;2.47;;;;;;;15.30;100.00;100716.50;4986579;28;20081;-67
2023/07/31 04:17:53;;;;;;;10.90;3.25;;;;;;;15.28;100.00;100726.56;4986318;28;20057;-69
2023/07/31 04:20:20;;;;;;;10.23;3.15;;;;;;;15.32;100.00;100718.84;4988123;28;20054;-72
2023/07/31 04:22:47;;;;;;;15.80;4.90;;;;;;;15.31;100.00;100704.03;4986602;28;20138;-69
2023/07/31 04:25:13;;;;;;;14.85;3.40;;;;;;;15.44;100.00;100693.63;4986988;28;20081;-72
2023/07/31 04:27:40;;;;;;;14.02;2.33;;;;;;;15.42;100.00;100695.31;4990677;28;20118;-72
2023/07/31 04:30:07;;;;;;;17.95;4.70;;;;;;;15.55;100.00;100682.84;4988661;28;20061;-73
2023/07/31 04:32:35;;;;;;;12.00;3.28;;;;;;;15.66;100.00;100686.06;4987155;28;20078;-72
2023/07/31 04:35:02;;;;;;;15.23;3.22;;;;;;;15.69;100.00;100685.16;4986322;28;20085;-71
2023/07/31 04:37:29;;;;;;;18.10;5.55;;;;;;;15.74;100.00;100679.00;4988304;28;20042;-71
2023/07/31 04:39:55;;;;;;;20.58;4.70;;;;;;;15.76;100.00;100679.31;4985809;28;20857;-72
2023/07/31 04:42:22;;;;;;;19.80;5.43;;;;;;;15.77;100.00;100666.06;4989864;28;20089;-70
2023/07/31 04:44:48;;;;;;;13.13;3.88;;;;;;;15.68;100.00;100675.19;4990263;28;20419;-68
2023/07/31 04:47:16;;;;;;;17.27;6.00;;;;;;;15.75;100.00;100671.34;4990989;28;20046;-73
2023/07/31 04:49:42;;;;;;;8.43;2.85;;;;;;;15.79;100.00;100677.59;4993971;28;20038;-71
2023/07/31 04:52:09;;;;;;;9.27;2.65;;;;;;;15.63;100.00;100674.97;4990692;28;20475;-75
2023/07/31 04:54:36;;;;;;;10.43;2.63;;;;;;;15.63;100.00;100681.34;4991159;28;20086;-76
2023/07/31 04:57:02;;;;;;;20.88;5.72;;;;;;;15.70;100.00;100681.09;4991448;28;20054;-72
2023/07/31 04:59:29;;;;;;;16.10;4.53;;;;;;;15.64;100.00;100679.34;4997221;28;20070;-74
2023/07/31 05:01:56;;;;;;;18.90;6.25;;;;;;;15.75;100.00;100680.53;4989119;28;20081;-73
2023/07/31 05:04:22;;;;;;;6.72;2.42;;;;;;;15.55;100.00;100699.66;4991288;28;20081;-73
2023/07/31 05:06:49;;;;;;;17.60;5.65;;;;;;;15.60;100.00;100689.91;4990938;28;20410;-72
2023/07/31 05:09:15;;;;;;;11.07;3.03;;;;;;;15.57;100.00;100690.81;4992476;28;20081;-73
2023/07/31 05:11:42;;;;;;;21.67;6.97;;;;;;;15.68;100.00;100686.41;4988300;28;20055;-68
2023/07/31 05:14:09;;;;;;;16.60;5.22;;;;;;;15.50;100.00;100682.63;4991437;28;20517;-71
2023/07/31 05:16:36;;;;;;;18.20;6.13;;;;;;;15.55;100.00;100693.25;4989032;28;20046;-74
2023/07/31 05:19:03;;;;;;;22.77;6.63;;;;;;;15.61;100.00;100691.47;4988222;28;20053;-75
2023/07/31 05:21:29;;;;;;;10.77;3.35;;;;;;;15.47;100.00;100698.34;4985187;28;20718;-71
2023/07/31 05:23:56;;;;;;;20.85;7.28;;;;;;;15.69;100.00;100687.97;4988651;28;20077;-74
2023/07/31 05:26:22;;;;;;;15.88;5.60;;;;;;;15.61;100.00;100681.03;4992065;28;20066;-69
2023/07/31 05:28:49;;;;;;;13.15;4.07;;;;;;;15.51;100.00;100687.78;4976423;28;20074;-73
2023/07/31 05:31:15;;;;;;;14.65;4.97;;;;;;;15.61;100.00;100669.03;4989668;28;20074;-73
2023/07/31 05:33:42;;;;;;;11.18;4.13;;;;;;;15.66;100.00;100680.44;4989636;28;20137;-72
2023/07/31 05:36:09;;;;;;;9.68;3.95;;;;;;;15.70;100.00;100678.31;4989841;28;20042;-69
2023/07/31 05:38:35;;;;;;;20.20;6.88;;;;;;;15.66;100.00;100674.84;4990633;28;20131;-74
2023/07/31 05:41:02;;;;;;;16.63;5.63;;;;;;;15.79;100.00;100672.78;4988987;28;20518;-69
2023/07/31 05:43:28;;;;;;;11.77;3.60;;;;;;;15.70;100.00;100666.34;5000013;28;20135;-71
2023/07/31 05:45:55;;;;;;;14.70;4.38;;;;;;;15.58;100.00;100679.13;4989942;28;20058;-74
2023/07/31 05:48:22;;;;;;;19.90;4.53;;;;;;;15.63;100.00;100680.59;4989181;28;20170;-73
2023/07/31 05:50:48;;;;;;;14.13;3.40;;;;;;;15.52;100.00;100694.94;4989544;28;20034;-73
2023/07/31 05:53:15;;;;;;;16.83;5.90;;;;;;;15.52;100.00;100689.34;4990451;28;20145;-72
2023/07/31 05:55:41;;;;;;;14.98;6.38;;;;;;;15.53;100.00;100696.50;4987668;28;20129;-69
2023/07/31 05:58:08;;;;;;;16.70;5.25;;;;;;;15.44;100.00;100707.66;4987465;28;20502;-73
2023/07/31 06:00:34;;;;;;;21.48;6.25;;;;;;;15.44;100.00;100698.44;4989538;28;20105;-72
2023/07/31 06:03:01;;;;;;;18.50;5.57;;;;;;;15.32;100.00;100702.03;4989043;28;20498;-71
2023/07/31 06:05:29;;;;;;;18.92;5.65;;;;;;;15.36;100.00;100719.53;4972889;28;20068;-67
2023/07/31 06:07:57;;;;;;;20.40;6.78;;;;;;;15.35;100.00;100717.94;4990038;28;20086;-72
2023/07/31 06:10:24;;;;;;;22.08;7.35;;;;;;;15.37;100.00;100716.28;4990965;28;20073;-71
2023/07/31 06:12:50;;;;;;;7.80;3.28;;;;;;;15.25;100.00;100727.47;4991109;28;20046;-74
2023/07/31 06:15:19;;;;;;;13.48;4.75;;;;;;;15.20;100.00;100723.22;4990331;28;20506;-70
2023/07/31 06:17:45;;;;;;;10.77;3.38;;;;;;;15.18;100.00;100741.69;4988638;28;20054;-72
2023/07/31 06:20:12;;;;;;;4.85;1.70;;;;;;;15.16;100.00;100739.34;4992860;28;20078;-70
2023/07/31 06:22:38;;;;;;;5.07;1.88;;;;;;;15.16;100.00;100744.16;4987011;28;20046;-72
2023/07/31 06:25:05;;;;;;;19.65;5.40;;;;;;;15.19;100.00;100744.03;4983531;28;20046;-72
2023/07/31 06:27:32;;;;;;;14.15;4.18;;;;;;;15.08;100.00;100746.38;4988178;28;20062;-71
2023/07/31 06:29:58;;;;;;;10.18;3.55;;;;;;;15.22;100.00;100748.75;4989040;28;20115;-69
2023/07/31 06:32:25;;;;;;;21.75;7.10;;;;;;;15.19;100.00;100744.03;4986959;28;20051;-76
2023/07/31 06:34:52;;;;;;;12.85;2.83;;;;;;;15.07;100.00;100744.84;4989600;28;20071;-69
2023/07/31 06:37:19;;;;;;;20.98;8.60;;;;;;;15.14;100.00;100755.00;4990067;28;20141;-71
2023/07/31 06:39:45;;;;;;;21.13;7.70;;;;;;;15.23;100.00;100749.53;4987164;28;20137;-73
2023/07/31 06:42:12;;;;;;;15.02;6.90;;;;;;;15.18;100.00;100747.28;4984414;28;20097;-70
2023/07/31 06:44:38;;;;;;;23.25;8.80;;;;;;;15.29;100.00;100751.31;4985619;28;20046;-69
2023/07/31 06:47:05;;;;;;;17.83;7.32;;;;;;;15.27;100.00;100750.19;4989398;28;20074;-71
2023/07/31 06:49:31;;;;;;;18.45;5.57;;;;;;;15.23;100.00;100744.72;4991433;28;20088;-71
2023/07/31 06:51:58;;;;;;;20.75;8.07;;;;;;;15.31;100.00;100750.88;4988146;28;20514;-70
2023/07/31 06:54:25;;;;;;;25.38;7.53;;;;;;;15.26;100.00;100749.41;4994776;28;20058;-72
2023/07/31 06:56:51;;;;;;;24.20;7.90;;;;;;;15.41;100.00;100744.97;4987828;28;20062;-72
2023/07/31 06:59:18;;;;;;;24.88;7.65;;;;;;;15.34;100.00;100741.56;4988814;28;20046;-70
2023/07/31 07:01:44;;;;;;;16.77;3.72;;;;;;;15.35;100.00;100735.50;4986752;28;20056;-73
2023/07/31 07:04:11;;;;;;;16.58;6.60;;;;;;;15.42;100.00;100740.16;4987837;28;20054;-72
2023/07/31 07:06:38;;;;;;;16.27;5.43;;;;;;;15.37;100.00;100735.88;4988259;28;20622;-70
2023/07/31 07:09:05;;;;;;;14.15;4.70;;;;;;;15.33;100.00;100735.19;4972256;28;20175;-75
2023/07/31 07:11:31;;;;;;;10.80;3.50;;;;;;;15.37;100.00;100737.91;4988819;28;20074;-73
2023/07/31 07:13:58;;;;;;;9.20;2.70;;;;;;;15.37;100.00;100732.28;4987731;28;20050;-72
2023/07/31 07:16:24;;;;;;;7.80;3.40;;;;;;;15.42;100.00;100735.31;4986049;28;20054;-77
2023/07/31 07:18:51;;;;;;;16.67;4.90;;;;;;;15.45;100.00;100728.03;4987695;28;20050;-75
2023/07/31 07:21:30;;;;;;;14.18;3.05;;;;;;;15.44;100.00;100720.84;4987365;28;20093;-73
2023/07/31 07:23:56;;;;;;;13.13;3.13;;;;;;;15.39;100.00;100730.59;4987056;28;20055;-74
2023/07/31 07:26:23;;;;;;;6.55;2.05;;;;;;;15.30;100.00;100740.91;4987494;28;20078;-73
2023/07/31 07:28:49;;;;;;;12.40;4.50;;;;;;;15.23;100.00;100722.31;4987399;28;20471;-75
2023/07/31 07:31:16;;;;;;;10.48;3.90;;;;;;;15.29;100.00;100740.09;4988812;28;20093;-75
2023/07/31 07:33:43;;;;;;;7.00;2.42;;;;;;;15.26;100.00;100724.19;4986755;28;20050;-74
2023/07/31 07:36:09;;;;;;;13.70;5.07;;;;;;;15.18;100.00;100725.66;4986888;28;20117;-74
2023/07/31 07:38:37;;;;;;;12.80;4.57;;;;;;;15.26;100.00;100738.19;4987236;28;20057;-74
2023/07/31 07:41:03;;;;;;;5.85;2.63;;;;;;;15.24;100.00;100737.09;4987217;28;20423;-74
2023/07/31 07:43:30;;;;;;;14.93;5.05;;;;;;;15.12;100.00;100721.84;4989541;28;20108;-75
2023/07/31 07:45:56;;;;;;;13.98;5.20;;;;;;;15.37;100.00;100721.88;4970464;28;20055;-76
2023/07/31 07:48:25;;;;;;;14.55;4.70;;;;;;;15.30;100.00;100730.50;4987832;28;20054;-75
2023/07/31 07:50:51;;;;;;;18.65;6.35;;;;;;;15.47;100.00;100731.97;4965010;28;20090;-75
2023/07/31 07:53:18;;;;;;;10.48;3.38;;;;;;;15.48;100.00;100724.31;4986019;28;20100;-73
2023/07/31 07:55:45;;;;;;;7.13;3.20;;;;;;;15.34;100.00;100727.56;4987166;28;20637;-76
2023/07/31 07:58:11;;;;;;;12.20;4.15;;;;;;;15.29;100.00;100714.91;4987673;28;20510;-73
2023/07/31 08:00:38;;;;;;;8.35;2.83;;;;;;;15.28;100.00;100718.16;4986538;28;20046;-73
2023/07/31 08:03:05;;;;;;;4.03;1.77;;;;;;;15.37;100.00;100716.28;4986263;28;20046;-75
2023/07/31 08:05:34;;;;;;;17.38;4.88;;;;;;;15.51;100.00;100710.19;4986469;28;20136;-74
2023/07/31 08:08:01;;;;;;;8.43;3.53;;;;;;;15.34;100.00;100719.94;4985493;28;20715;-72
2023/07/31 08:10:27;;;;;;;8.82;2.92;;;;;;;15.44;100.00;100716.06;4985858;28;20487;-76
2023/07/31 08:12:57;;;;;;;10.95;4.05;;;;;;;15.25;100.00;100717.03;4985539;28;20097;-73
2023/07/31 08:15:24;;;;;;;6.82;2.05;;;;;;;15.39;100.00;100711.00;4989660;28;20104;-75
2023/07/31 08:17:50;;;;;;;9.35;3.75;;;;;;;15.36;100.00;100711.13;4986143;28;20054;-74
2023/07/31 08:20:17;;;;;;;13.98;4.05;;;;;;;15.35;100.00;100706.75;4988076;28;20128;-72
2023/07/31 08:22:43;;;;;;;4.45;1.48;;;;;;;15.34;100.00;100700.34;4987482;28;20117;-76
2023/07/31 08:25:10;;;;;;;7.43;3.10;;;;;;;15.36;100.00;100700.69;4985206;28;20132;-75
2023/07/31 08:27:37;;;;;;;7.55;2.67;;;;;;;15.32;100.00;100702.78;4990092;28;20157;-71
2023/07/31 08:30:04;;;;;;;8.27;2.92;;;;;;;15.36;100.00;100711.91;4988344;28;20517;-74
2023/07/31 08:32:30;;;;;;;8.52;3.05;;;;;;;15.26;100.00;100710.19;4988136;28;20046;-71
2023/07/31 08:34:57;;;;;;;9.68;2.95;;;;;;;15.16;100.00;100716.16;4969230;28;20510;-73
2023/07/31 08:37:24;;;;;;;3.25;1.88;;;;;;;15.35;100.00;100712.34;4987024;28;20050;-71
2023/07/31 08:39:51;;;;;;;8.35;2.78;;;;;;;15.04;100.00;100703.72;4984259;28;20049;-74
2023/07/31 08:42:17;;;;;;;5.00;2.38;;;;;;;15.16;100.00;100708.56;4984273;28;20464;-73
2023/07/31 08:44:44;;;;;;;7.15;2.92;;;;;;;14.98;100.00;100692.31;4983706;28;20047;-73
2023/07/31 08:47:11;;;;;;;5.93;2.70;;;;;;;15.03;100.00;100696.56;4984140;28;20509;-73
2023/07/31 08:49:40;;;;;;;9.85;4.07;;;;;;;15.14;100.00;100699.00;4985574;28;20046;-74
2023/07/31 08:52:07;;;;;;;3.42;1.40;;;;;;;15.15;100.00;100709.75;4987661;28;20053;-75
2023/07/31 08:54:33;;;;;;;9.00;3.50;;;;;;;15.23;100.00;100708.31;4987609;28;20081;-74
2023/07/31 08:57:02;;;;;;;7.10;2.28;;;;;;;15.13;100.00;100706.66;4987667;28;20058;-74
2023/07/31 08:59:31;;;;;;;6.80;2.08;;;;;;;15.00;100.00;100711.47;4987602;28;20473;-73
2023/07/31 09:02:03;;;;;;;3.03;1.35;;;;;;;15.08;100.00;100704.38;4987093;28;20494;-73
2023/07/31 09:04:30;;;;;;;7.97;2.88;;;;;;;14.92;100.00;100707.28;4987407;28;20054;-75
2023/07/31 09:07:00;;;;;;;7.68;2.47;;;;;;;14.92;100.00;100710.88;4987970;28;20077;-74
2023/07/31 09:09:27;;;;;;;8.07;2.08;;;;;;;14.95;100.00;100709.19;4987187;28;20419;-74
2023/07/31 09:11:55;;;;;;;7.18;2.72;;;;;;;14.94;100.00;100716.84;4986714;28;20054;-70
2023/07/31 09:14:22;;;;;;;13.77;4.65;;;;;;;15.14;100.00;100725.00;4983761;28;20104;-73
2023/07/31 09:16:54;;;;;;;9.68;3.80;;;;;;;15.05;100.00;100724.88;4984286;28;20051;-72
2023/07/31 09:19:36;;;;;;;5.53;2.10;;;;;;;14.98;100.00;100730.69;4980868;28;20046;-74
2023/07/31 09:22:04;;;;;;;11.30;4.35;;;;;;;15.15;100.00;100729.38;4985052;28;20046;-74
2023/07/31 09:24:32;;;;;;;6.30;2.78;;;;;;;15.02;100.00;100725.78;4985546;28;20081;-74
2023/07/31 09:27:00;;;;;;;6.78;2.00;;;;;;;15.18;100.00;100719.28;4984511;28;20085;-73
2023/07/31 09:29:29;;;;;;;6.75;1.92;;;;;;;15.05;100.00;100715.72;4988967;28;20050;-70
2023/07/31 09:31:57;;;;;;;6.78;2.10;;;;;;;15.21;100.00;100710.78;4989911;28;20110;-74
2023/07/31 09:34:40;;;;;;;4.00;1.88;;;;;;;15.05;100.00;100698.91;4988652;28;20133;-75
2023/07/31 09:37:07;;;;;;;5.90;2.17;;;;;;;15.15;100.00;100692.97;4989499;28;20050;-72
2023/07/31 09:39:45;;;;;;;6.25;2.63;;;;;;;15.18;100.00;100688.47;4991919;28;20132;-75
2023/07/31 09:42:12;;;;;;;2.78;1.55;;;;;;;15.18;100.00;100685.66;4993947;28;20050;-74
2023/07/31 09:44:40;;;;;;;10.48;2.45;;;;;;;15.23;100.00;100688.72;4989866;28;20057;-72
2023/07/31 09:47:21;;;;;;;6.85;2.10;;;;;;;15.15;100.00;100692.97;4989925;28;20061;-75
2023/07/31 09:49:48;;;;;;;8.63;3.22;;;;;;;15.39;100.00;100690.63;4988544;28;20133;-73
2023/07/31 09:52:15;;;;;;;5.70;3.03;;;;;;;15.26;100.00;100695.44;4990942;28;20047;-75
2023/07/31 09:54:42;;;;;;;6.20;2.63;;;;;;;15.21;100.00;100693.19;4988680;28;20085;-75
2023/07/31 09:57:10;;;;;;;6.63;2.35;;;;;;;15.34;100.00;100770.38;4988524;28;20062;-76
2023/07/31 09:59:37;;;;;;;6.53;2.45;;;;;;;15.31;100.00;100748.84;4990289;28;20054;-75
2023/07/31 10:02:04;;;;;;;9.32;3.42;;;;;;;15.40;100.00;100743.41;4956064;28;20046;-75
2023/07/31 10:04:31;;;;;;;3.22;1.23;;;;;;;15.42;100.00;100731.75;4989798;28;20051;-76
2023/07/31 10:07:02;;;;;;;3.08;1.45;;;;;;;15.40;100.00;100721.00;4991941;28;20082;-72
2023/07/31 10:09:31;;;;;;;5.63;2.55;;;;;;;15.35;100.00;100723.53;4989313;28;20078;-74
2023/07/31 10:12:06;;;;;;;3.72;1.45;;;;;;;15.35;100.00;100715.16;4990452;28;20054;-74
2023/07/31 10:14:33;;;;;;;5.88;2.42;;;;;;;15.52;100.00;100708.97;4987487;28;20046;-75
2023/07/31 10:17:00;;;;;;;4.55;1.75;;;;;;;15.43;100.00;100702.50;4983470;28;20050;-74
2023/07/31 10:19:28;;;;;;;3.65;1.35;;;;;;;15.38;100.00;100726.25;4988118;28;20109;-74
2023/07/31 10:21:58;;;;;;;8.50;3.22;;;;;;;15.51;100.00;100707.41;4989000;28;20073;-73
2023/07/31 10:24:26;;;;;;;3.42;2.08;;;;;;;15.47;100.00;100706.75;4990459;28;20694;-76
2023/07/31 10:26:54;;;;;;;9.48;3.72;;;;;;;15.69;100.00;100698.41;4990366;28;20518;-75
2023/07/31 10:29:22;;;;;;;4.40;2.10;;;;;;;15.62;100.00;100709.81;4994176;28;20762;-76
2023/07/31 10:31:48;;;;;;;4.35;1.75;;;;;;;15.62;100.00;100688.19;4987847;28;20058;-75
2023/07/31 10:34:16;;;;;;;3.45;1.60;;;;;;;15.57;100.00;100699.22;4989496;28;20054;-76
2023/07/31 10:36:43;;;;;;;6.72;1.83;;;;;;;15.51;100.00;100704.59;4988695;28;20050;-70
2023/07/31 10:39:40;;;;;;;8.23;3.20;;;;;;;15.65;100.00;100692.91;4970973;28;20577;-72
2023/07/31 10:42:13;;;;;;;5.32;2.42;;;;;;;15.45;100.00;100692.41;4990336;28;20093;-75
2023/07/31 10:44:49;;;;;;;5.18;1.95;;;;;;;15.53;100.00;100687.34;4988522;28;20046;-74
2023/07/31 10:47:17;;;;;;;7.10;2.67;;;;;;;15.38;100.00;100691.84;4986661;28;20229;-74
2023/07/31 10:49:46;;;;;;;8.48;2.83;;;;;;;15.33;100.00;100693.19;4988396;28;20586;-72
2023/07/31 10:52:13;;;;;;;5.45;2.55;;;;;;;15.34;100.00;100700.34;4987351;28;20042;-74
2023/07/31 10:54:40;;;;;;;7.05;2.90;;;;;;;15.42;100.00;100698.91;4987665;28;20054;-75
2023/07/31 10:57:22;;;;;;;12.45;5.07;;;;;;;15.59;100.00;100691.91;4989129;28;20116;-72
2023/07/31 10:59:50;;;;;;;13.50;6.18;;;;;;;15.61;100.00;100697.06;4990346;28;20050;-79
2023/07/31 11:02:29;;;;;;;8.68;2.95;;;;;;;15.58;100.00;100681.16;4986145;28;20054;-73
2023/07/31 11:05:11;;;;;;;13.35;4.03;;;;;;;15.66;100.00;100680.44;4988961;28;20060;-75
2023/07/31 11:07:48;;;;;;;8.60;3.10;;;;;;;15.54;100.00;100674.88;4979527;28;20061;-77
2023/07/31 11:10:19;;;;;;;11.80;4.85;;;;;;;15.74;100.00;100675.41;4987859;28;20112;-75
2023/07/31 11:12:46;;;;;;;9.70;4.47;;;;;;;15.80;100.00;100668.75;4987631;28;20493;-78
2023/07/31 11:15:13;;;;;;;10.85;4.65;;;;;;;15.75;100.00;100666.53;4993253;28;20045;-77